createdAt,value
2022-08-23T00:01:21.230Z,9.23
2022-08-23T00:03:47.892Z,7.05
2022-08-23T00:06:12.870Z,9.13
2022-08-23T00:08:36.905Z,6.78
2022-08-23T00:11:00.843Z,5.32
2022-08-23T00:13:24.723Z,7.43
2022-08-23T00:16:09.879Z,10.18
2022-08-23T00:18:33.492Z,5.15
2022-08-23T00:20:57.201Z,6.40
2022-08-23T00:23:21.209Z,8.52
2022-08-23T00:25:45.428Z,9.95
2022-08-23T00:28:11.442Z,9.82
2022-08-23T00:30:39.098Z,6.07
2022-08-23T00:33:04.159Z,8.05
2022-08-23T00:35:28.653Z,8.00
2022-08-23T00:38:32.322Z,8.35
2022-08-23T00:40:36.045Z,8.60
2022-08-23T00:43:26.112Z,6.35
2022-08-23T00:46:16.547Z,7.07
2022-08-23T00:48:42.355Z,6.90
2022-08-23T00:51:12.892Z,8.05
2022-08-23T00:53:42.172Z,8.00
2022-08-23T00:56:12.214Z,6.30
2022-08-23T00:58:37.543Z,8.32
2022-08-23T01:01:04.472Z,8.15
2022-08-23T01:03:38.821Z,9.88
2022-08-23T01:06:13.068Z,6.88
2022-08-23T01:08:38.387Z,7.30
2022-08-23T01:11:09.643Z,8.52
2022-08-23T01:13:41.047Z,8.05
2022-08-23T01:16:11.553Z,8.55
2022-08-23T01:18:35.714Z,7.85
2022-08-23T01:21:10.767Z,6.63
2022-08-23T01:23:43.239Z,8.65
2022-08-23T01:26:09.079Z,8.27
2022-08-23T01:28:35.092Z,11.07
2022-08-23T01:30:58.873Z,7.13
2022-08-23T01:33:22.879Z,9.80
2022-08-23T01:35:53.527Z,6.97
2022-08-23T01:38:18.163Z,6.70
2022-08-23T01:40:44.927Z,8.15
2022-08-23T01:43:10.111Z,8.45
2022-08-23T01:45:35.127Z,5.85
2022-08-23T01:47:59.257Z,8.07
2022-08-23T01:50:23.704Z,8.73
2022-08-23T01:52:47.594Z,6.22
2022-08-23T01:55:13.858Z,6.97
2022-08-23T01:57:39.079Z,5.72
2022-08-23T02:00:07.875Z,5.55
2022-08-23T02:02:37.432Z,7.00
2022-08-23T02:05:01.319Z,7.95
2022-08-23T02:07:28.905Z,6.28
2022-08-23T02:09:53.265Z,6.70
2022-08-23T02:12:17.583Z,7.70
2022-08-23T02:14:43.723Z,7.07
2022-08-23T02:17:16.171Z,5.03
2022-08-23T02:19:41.216Z,9.57
2022-08-23T02:22:07.471Z,6.90
2022-08-23T02:24:32.235Z,7.07
2022-08-23T02:26:59.506Z,7.25
2022-08-23T02:29:29.726Z,6.45
2022-08-23T02:31:55.683Z,6.93
2022-08-23T02:34:20.694Z,5.43
2022-08-23T02:36:46.096Z,5.60
2022-08-23T02:39:10.931Z,5.78
2022-08-23T02:41:36.178Z,5.30
2022-08-23T02:44:00.468Z,6.50
2022-08-23T02:46:24.920Z,6.88
2022-08-23T02:48:51.047Z,5.25
2022-08-23T02:51:14.745Z,5.13
2022-08-23T02:53:39.303Z,6.85
2022-08-23T02:56:12.951Z,6.60
2022-08-23T02:58:46.586Z,10.15
2022-08-23T03:01:19.270Z,5.28
2022-08-23T03:03:43.507Z,6.55
2022-08-23T03:06:25.487Z,7.57
2022-08-23T03:08:49.916Z,8.90
2022-08-23T03:11:15.684Z,8.48
2022-08-23T03:13:41.637Z,8.80
2022-08-23T03:16:06.125Z,8.80
2022-08-23T03:18:30.030Z,8.55
2022-08-23T03:20:56.623Z,9.70
2022-08-23T03:23:21.930Z,9.52
2022-08-23T03:25:45.975Z,6.95
2022-08-23T03:28:21.483Z,8.18
2022-08-23T03:30:45.634Z,8.63
2022-08-23T03:33:10.314Z,16.95
2022-08-23T03:35:34.309Z,10.85
2022-08-23T03:38:00.695Z,8.50
2022-08-23T03:40:26.671Z,8.65
2022-08-23T03:42:50.691Z,11.02
2022-08-23T03:45:16.598Z,12.73
2022-08-23T03:47:41.024Z,9.00
2022-08-23T03:50:05.689Z,11.10
2022-08-23T03:52:30.527Z,31.73
2022-08-23T03:54:55.124Z,22.52
2022-08-23T03:57:20.327Z,21.15
2022-08-23T03:59:44.159Z,31.95
2022-08-23T04:02:09.115Z,41.35
2022-08-23T04:04:33.511Z,12.25
2022-08-23T04:07:20.795Z,12.73
2022-08-23T04:09:50.913Z,13.60
2022-08-23T04:12:20.450Z,9.80
2022-08-23T04:14:45.578Z,8.15
2022-08-23T04:17:10.473Z,11.77
2022-08-23T04:19:34.380Z,8.65
2022-08-23T04:22:00.976Z,9.20
2022-08-23T04:24:31.747Z,9.23
2022-08-23T04:26:55.576Z,8.45
2022-08-23T04:29:31.446Z,11.63
2022-08-23T04:31:58.255Z,10.45
2022-08-23T04:34:22.060Z,8.70
2022-08-23T04:36:55.218Z,8.45
2022-08-23T04:39:19.476Z,7.43
2022-08-23T04:42:01.276Z,9.68
2022-08-23T04:44:26.543Z,9.50
2022-08-23T04:46:51.008Z,6.63
2022-08-23T04:49:14.788Z,8.70
2022-08-23T04:51:38.627Z,10.02
2022-08-23T04:54:03.158Z,12.15
2022-08-23T04:56:45.592Z,9.50
2022-08-23T04:59:16.791Z,11.52
2022-08-23T05:01:44.243Z,9.57
2022-08-23T05:04:10.775Z,11.55
2022-08-23T05:06:36.391Z,10.23
2022-08-23T05:09:02.312Z,10.30
2022-08-23T05:11:28.111Z,10.60
2022-08-23T05:13:52.186Z,7.93
2022-08-23T05:16:17.883Z,9.52
2022-08-23T05:18:54.313Z,6.88
2022-08-23T05:21:20.251Z,8.20
2022-08-23T05:23:44.557Z,9.00
2022-08-23T05:26:17.272Z,10.05
2022-08-23T05:28:44.580Z,10.75
2022-08-23T05:31:13.069Z,11.50
2022-08-23T05:33:42.841Z,9.13
2022-08-23T05:36:10.419Z,10.00
2022-08-23T05:38:35.104Z,10.73
2022-08-23T05:41:02.136Z,8.57
2022-08-23T05:43:30.706Z,12.70
2022-08-23T05:46:03.729Z,7.88
2022-08-23T05:48:30.293Z,7.45
2022-08-23T05:50:57.675Z,9.90
2022-08-23T05:53:22.800Z,8.95
2022-08-23T05:55:46.882Z,10.82
2022-08-23T05:58:15.230Z,9.05
2022-08-23T06:00:40.722Z,8.85
2022-08-23T06:03:06.083Z,7.15
2022-08-23T06:05:30.785Z,10.85
2022-08-23T06:07:56.255Z,10.40
2022-08-23T06:10:22.946Z,10.30
2022-08-23T06:12:55.547Z,8.90
2022-08-23T06:15:19.543Z,8.32
2022-08-23T06:17:43.295Z,7.15
2022-08-23T06:20:08.739Z,6.63
2022-08-23T06:22:53.386Z,8.70
2022-08-23T06:25:17.247Z,8.63
2022-08-23T06:27:50.315Z,11.38
2022-08-23T06:30:15.141Z,9.48
2022-08-23T06:32:38.819Z,10.13
2022-08-23T06:35:41.651Z,7.85
2022-08-23T06:38:15.099Z,10.07
2022-08-23T06:41:02.790Z,8.55
2022-08-23T06:43:39.252Z,8.55
2022-08-23T06:46:20.077Z,13.40
2022-08-23T06:48:48.699Z,9.80
2022-08-23T06:51:15.207Z,10.07
2022-08-23T06:53:55.029Z,8.55
2022-08-23T06:56:40.007Z,9.43
2022-08-23T06:59:12.256Z,8.65
2022-08-23T07:01:57.753Z,9.43
2022-08-23T07:04:30.183Z,11.75
2022-08-23T07:07:10.749Z,7.95
2022-08-23T07:09:35.485Z,10.48
2022-08-23T07:12:00.788Z,11.07
2022-08-23T07:14:26.914Z,9.25
2022-08-23T07:16:56.185Z,8.70
2022-08-23T07:19:22.839Z,8.15
2022-08-23T07:21:53.164Z,9.68
2022-08-23T07:24:18.722Z,9.82
2022-08-23T07:26:44.527Z,7.18
2022-08-23T07:29:11.467Z,10.77
2022-08-23T07:31:43.979Z,6.95
2022-08-23T07:34:10.385Z,11.63
2022-08-23T07:36:37.684Z,10.32
2022-08-23T07:39:02.137Z,7.78
2022-08-23T07:41:32.909Z,7.70
2022-08-23T07:43:58.233Z,5.50
2022-08-23T07:46:22.014Z,9.73
2022-08-23T07:48:54.213Z,5.38
2022-08-23T07:51:26.757Z,8.50
2022-08-23T07:53:50.521Z,6.68
2022-08-23T07:56:18.687Z,5.75
2022-08-23T07:59:01.486Z,6.30
2022-08-23T08:01:35.304Z,9.52
2022-08-23T08:04:03.627Z,7.43
2022-08-23T08:06:33.988Z,6.80
2022-08-23T08:08:58.738Z,6.15
2022-08-23T08:11:29.705Z,8.35
2022-08-23T08:13:59.052Z,8.55
2022-08-23T08:16:27.969Z,9.65
2022-08-23T08:18:53.248Z,8.52
2022-08-23T08:21:51.357Z,6.93
2022-08-23T08:24:41.416Z,5.90
2022-08-23T08:27:09.397Z,4.85
2022-08-23T08:29:33.520Z,7.88
2022-08-23T08:31:57.573Z,6.45
2022-08-23T08:34:21.451Z,7.80
2022-08-23T08:36:50.217Z,5.05
2022-08-23T08:39:19.864Z,4.93
2022-08-23T08:42:04.619Z,6.13
2022-08-23T08:44:40.087Z,5.25
2022-08-23T08:47:11.923Z,7.07
2022-08-23T08:49:43.436Z,5.07
2022-08-23T08:52:18.670Z,4.97
2022-08-23T08:54:48.037Z,4.88
2022-08-23T08:57:15.718Z,3.95
2022-08-23T08:59:52.251Z,5.93
2022-08-23T09:02:31.883Z,5.55
2022-08-23T09:05:02.646Z,5.07
2022-08-23T09:07:50.968Z,6.57
2022-08-23T09:10:33.683Z,7.05
2022-08-23T09:13:37.244Z,8.15
2022-08-23T09:16:13.354Z,4.63
2022-08-23T09:18:38.468Z,5.47
2022-08-23T09:21:02.993Z,11.25
2022-08-23T09:23:38.325Z,3.75
2022-08-23T09:26:19.370Z,5.63
2022-08-23T09:28:43.539Z,5.20
2022-08-23T09:31:08.462Z,6.03
2022-08-23T09:33:42.032Z,6.07
2022-08-23T09:36:23.939Z,5.70
2022-08-23T09:38:56.607Z,4.78
2022-08-23T09:41:27.760Z,4.45
2022-08-23T09:43:55.729Z,5.03
2022-08-23T09:46:28.271Z,5.70
2022-08-23T09:48:55.229Z,3.58
2022-08-23T09:51:30.328Z,6.68
2022-08-23T09:54:09.447Z,4.03
2022-08-23T09:56:38.809Z,6.55
2022-08-23T09:59:04.388Z,6.07
2022-08-23T10:01:40.142Z,5.03
2022-08-23T10:04:14.810Z,5.13
2022-08-23T10:06:41.039Z,5.15
2022-08-23T10:09:10.130Z,5.03
2022-08-23T10:11:42.673Z,5.03
2022-08-23T10:14:08.440Z,4.95
2022-08-23T10:16:43.768Z,6.35
2022-08-23T10:19:21.205Z,3.35
2022-08-23T10:21:57.440Z,5.57
2022-08-23T10:24:34.614Z,5.07
2022-08-23T10:27:40.051Z,4.80
2022-08-23T10:30:10.310Z,2.90
2022-08-23T10:32:53.630Z,2.65
2022-08-23T10:35:37.091Z,7.22
2022-08-23T10:38:42.145Z,5.95
2022-08-23T10:41:40.056Z,3.60
2022-08-23T10:44:24.835Z,5.10
2022-08-23T10:47:08.867Z,4.55
2022-08-23T10:49:37.819Z,3.78
2022-08-23T10:52:05.238Z,3.67
2022-08-23T10:54:46.043Z,3.83
2022-08-23T10:57:20.755Z,3.05
2022-08-23T10:59:47.021Z,5.45
2022-08-23T11:02:23.949Z,3.17
2022-08-23T11:05:06.994Z,5.13
2022-08-23T11:07:35.338Z,6.25
2022-08-23T11:10:17.423Z,4.53
2022-08-23T11:12:58.996Z,5.28
2022-08-23T11:15:34.262Z,3.80
2022-08-23T11:18:04.196Z,2.53
2022-08-23T11:21:34.148Z,3.63
2022-08-23T11:24:39.025Z,2.15
2022-08-23T11:27:07.692Z,4.40
2022-08-23T11:29:43.416Z,4.35
2022-08-23T11:32:40.243Z,4.18
2022-08-23T11:35:32.966Z,4.18
2022-08-23T11:38:04.317Z,5.55
2022-08-23T11:41:22.747Z,3.50
2022-08-23T11:43:49.666Z,4.93
2022-08-23T11:46:36.089Z,3.45
2022-08-23T11:49:55.682Z,3.15
2022-08-23T11:52:51.183Z,3.65
2022-08-23T11:55:52.802Z,2.40
2022-08-23T11:58:25.063Z,3.78
2022-08-23T12:01:07.642Z,4.63
2022-08-23T12:03:37.126Z,3.40
2022-08-23T12:06:16.740Z,4.15
2022-08-23T12:08:53.804Z,7.78
2022-08-23T12:11:20.215Z,3.30
2022-08-23T12:13:55.549Z,2.25
2022-08-23T12:16:44.322Z,2.90
2022-08-23T12:19:30.509Z,3.88
2022-08-23T12:21:57.905Z,4.05
2022-08-23T12:24:27.805Z,4.88
2022-08-23T12:27:04.781Z,4.53
2022-08-23T12:30:00.008Z,3.85
2022-08-23T12:32:36.559Z,2.90
2022-08-23T12:35:20.086Z,3.53
2022-08-23T12:37:52.232Z,2.83
2022-08-23T12:40:23.996Z,2.88
2022-08-23T12:42:48.120Z,5.07
2022-08-23T12:45:19.446Z,4.07
2022-08-23T12:47:45.444Z,3.90
2022-08-23T12:50:32.953Z,4.72
2022-08-23T12:53:01.271Z,4.03
2022-08-23T12:55:25.221Z,3.28
2022-08-23T12:57:56.531Z,3.58
2022-08-23T13:00:25.491Z,6.38
2022-08-23T13:02:56.893Z,4.03
2022-08-23T13:05:33.943Z,4.18
2022-08-23T13:07:59.540Z,5.28
2022-08-23T13:10:23.644Z,4.22
2022-08-23T13:12:47.523Z,4.07
2022-08-23T13:15:14.215Z,3.13
2022-08-23T13:17:41.071Z,2.63
2022-08-23T13:20:24.422Z,5.00
2022-08-23T13:23:04.110Z,4.22
2022-08-23T13:25:32.705Z,5.85
2022-08-23T13:27:59.606Z,3.72
2022-08-23T13:30:26.667Z,4.28
2022-08-23T13:32:52.151Z,4.55
2022-08-23T13:35:36.629Z,4.07
2022-08-23T13:38:10.834Z,5.95
2022-08-23T13:40:43.778Z,2.90
2022-08-23T13:43:11.867Z,3.75
2022-08-23T13:45:38.084Z,4.88
2022-08-23T13:48:08.883Z,2.60
2022-08-23T13:50:36.783Z,4.65
2022-08-23T13:53:14.386Z,4.10
2022-08-23T13:55:46.219Z,5.72
2022-08-23T13:58:13.397Z,5.18
2022-08-23T14:00:37.876Z,4.45
2022-08-23T14:03:01.700Z,3.08
2022-08-23T14:05:25.546Z,3.15
2022-08-23T14:07:53.004Z,2.80
2022-08-23T14:10:18.313Z,3.10
2022-08-23T14:12:44.958Z,2.40
2022-08-23T14:15:10.110Z,3.95
2022-08-23T14:17:41.709Z,3.42
2022-08-23T14:22:52.960Z,5.07
2022-08-23T14:25:16.896Z,5.43
2022-08-23T14:27:42.567Z,4.05
2022-08-23T14:30:08.495Z,5.53
2022-08-23T14:32:32.398Z,4.97
2022-08-23T14:34:56.075Z,6.35
2022-08-23T14:38:00.439Z,5.82
2022-08-23T14:40:06.898Z,4.22
2022-08-23T14:42:31.830Z,5.50
2022-08-23T14:44:55.531Z,3.42
2022-08-23T14:47:19.515Z,3.67
2022-08-23T14:49:43.323Z,3.13
2022-08-23T14:52:07.323Z,3.72
2022-08-23T14:54:31.928Z,3.08
2022-08-23T14:56:57.080Z,3.22
2022-08-23T14:59:20.880Z,3.00
2022-08-23T15:01:45.148Z,5.65
2022-08-23T15:04:10.043Z,2.95
2022-08-23T15:06:33.792Z,3.08
2022-08-23T15:08:57.567Z,3.33
2022-08-23T15:14:06.903Z,3.10
2022-08-23T15:16:30.955Z,4.25
2022-08-23T15:18:55.015Z,2.72
2022-08-23T15:21:19.511Z,5.63
2022-08-23T15:23:43.400Z,2.75
2022-08-23T15:26:08.199Z,3.55
2022-08-23T15:28:32.209Z,3.60
2022-08-23T15:30:58.059Z,5.18
2022-08-23T15:33:27.164Z,2.42
2022-08-23T15:35:55.548Z,4.32
2022-08-23T15:38:20.598Z,3.38
2022-08-23T15:40:45.215Z,8.70
2022-08-23T15:43:08.924Z,4.72
2022-08-23T15:45:33.859Z,4.90
2022-08-23T15:48:01.243Z,5.63
2022-08-23T15:50:31.061Z,5.95
2022-08-23T15:52:55.244Z,6.00
2022-08-23T15:55:19.756Z,3.50
2022-08-23T15:57:46.839Z,3.63
2022-08-23T16:00:13.005Z,3.72
2022-08-23T16:02:57.347Z,3.90
2022-08-23T16:05:22.243Z,3.65
2022-08-23T16:07:46.423Z,4.93
2022-08-23T16:10:13.003Z,2.83
2022-08-23T16:12:36.723Z,2.88
2022-08-23T16:15:00.443Z,2.78
2022-08-23T16:17:24.275Z,5.72
2022-08-23T16:19:48.964Z,6.45
2022-08-23T16:22:14.790Z,5.20
2022-08-23T16:24:38.531Z,9.80
2022-08-23T16:27:02.183Z,5.10
2022-08-23T16:29:27.346Z,4.38
2022-08-23T16:31:51.915Z,4.13
2022-08-23T16:34:18.415Z,4.15
2022-08-23T16:36:45.562Z,5.53
2022-08-23T16:39:12.831Z,5.32
2022-08-23T16:41:36.776Z,5.70
2022-08-23T16:44:00.727Z,3.25
2022-08-23T16:46:25.845Z,6.20
2022-08-23T16:48:49.940Z,4.07
2022-08-23T16:51:14.138Z,7.35
2022-08-23T16:53:38.508Z,6.13
2022-08-23T16:56:03.699Z,2.53
2022-08-23T16:58:27.512Z,4.30
2022-08-23T17:00:51.553Z,4.80
2022-08-23T17:03:15.610Z,5.53
2022-08-23T17:05:39.350Z,5.25
2022-08-23T17:08:03.472Z,3.22
2022-08-23T17:10:27.524Z,4.03
2022-08-23T17:12:55.584Z,9.35
2022-08-23T17:15:25.075Z,13.73
2022-08-23T17:17:49.104Z,12.82
2022-08-23T17:20:14.638Z,8.32
2022-08-23T17:22:38.640Z,21.90
2022-08-23T17:25:02.276Z,20.98
2022-08-23T17:27:26.231Z,7.07
2022-08-23T17:29:51.667Z,6.32
2022-08-23T17:32:18.451Z,6.38
2022-08-23T17:34:42.082Z,4.97
2022-08-23T17:37:06.431Z,7.03
2022-08-23T17:39:32.273Z,5.82
2022-08-23T17:41:59.638Z,8.40
2022-08-23T17:44:23.697Z,10.07
2022-08-23T17:46:49.243Z,4.82
2022-08-23T17:49:14.246Z,4.50
2022-08-23T17:51:41.051Z,5.28
2022-08-23T17:54:05.023Z,5.57
2022-08-23T17:56:29.079Z,7.65
2022-08-23T17:58:53.010Z,4.57
2022-08-23T18:01:16.826Z,6.95
2022-08-23T18:03:42.501Z,5.63
2022-08-23T18:06:16.835Z,5.55
2022-08-23T18:08:41.139Z,8.20
2022-08-23T18:11:05.023Z,7.55
2022-08-23T18:13:28.762Z,5.82
2022-08-23T18:15:52.664Z,7.07
2022-08-23T18:18:16.472Z,6.43
2022-08-23T18:20:41.544Z,7.78
2022-08-23T18:23:06.011Z,6.43
2022-08-23T18:25:30.111Z,7.30
2022-08-23T18:28:08.537Z,5.40
2022-08-23T18:30:32.442Z,8.20
2022-08-23T18:32:56.396Z,5.38
2022-08-23T18:35:20.239Z,9.43
2022-08-23T18:37:46.108Z,7.25
2022-08-23T18:40:11.896Z,5.47
2022-08-23T18:42:36.038Z,4.10
2022-08-23T18:44:59.747Z,6.97
2022-08-23T18:47:23.356Z,7.97
2022-08-23T18:49:47.014Z,4.10
2022-08-23T18:52:10.782Z,8.30
2022-08-23T18:54:36.546Z,8.15
2022-08-23T18:57:00.655Z,5.05
2022-08-23T18:59:24.520Z,5.80
2022-08-23T19:01:48.532Z,5.70
2022-08-23T19:04:14.416Z,4.88
2022-08-23T19:06:38.833Z,5.78
2022-08-23T19:09:02.564Z,5.07
2022-08-23T19:11:28.234Z,5.50
2022-08-23T19:13:52.217Z,5.72
2022-08-23T19:16:17.125Z,5.05
2022-08-23T19:18:41.211Z,6.35
2022-08-23T19:21:06.475Z,7.03
2022-08-23T19:23:30.211Z,8.70
2022-08-23T19:25:53.907Z,7.45
2022-08-23T19:28:19.991Z,8.65
2022-08-23T19:30:44.267Z,5.25
2022-08-23T19:33:08.131Z,9.27
2022-08-23T19:35:32.108Z,7.28
2022-08-23T19:37:55.855Z,5.70
2022-08-23T19:40:20.373Z,6.80
2022-08-23T19:42:44.160Z,5.30
2022-08-23T19:45:10.981Z,4.57
2022-08-23T19:47:35.035Z,5.18
2022-08-23T19:49:59.912Z,7.75
2022-08-23T19:52:23.627Z,7.07
2022-08-23T19:54:47.667Z,5.78
2022-08-23T19:57:11.379Z,9.48
2022-08-23T19:59:40.278Z,8.32
2022-08-23T20:02:05.795Z,6.35
2022-08-23T20:04:32.261Z,7.57
2022-08-23T20:06:57.631Z,7.30
2022-08-23T20:09:23.416Z,10.27
2022-08-23T20:11:47.409Z,7.57
2022-08-23T20:14:11.688Z,7.55
2022-08-23T20:16:36.652Z,10.13
2022-08-23T20:19:04.039Z,10.18
2022-08-23T20:21:28.586Z,6.53
2022-08-23T20:24:04.173Z,8.18
2022-08-23T20:26:29.099Z,10.27
2022-08-23T20:28:59.670Z,9.63
2022-08-23T20:31:28.201Z,7.13
2022-08-23T20:33:53.137Z,5.90
2022-08-23T20:36:20.356Z,8.70
2022-08-23T20:38:44.114Z,7.13
2022-08-23T20:41:08.504Z,6.43
2022-08-23T20:43:32.811Z,6.65
2022-08-23T20:45:57.451Z,8.65
2022-08-23T20:48:21.414Z,8.30
2022-08-23T20:50:45.155Z,6.07
2022-08-23T20:53:12.819Z,4.85
2022-08-23T20:55:36.544Z,7.05
2022-08-23T20:58:00.841Z,7.10
2022-08-23T21:00:24.683Z,6.57
2022-08-23T21:02:48.529Z,7.38
2022-08-23T21:05:12.398Z,9.80
2022-08-23T21:07:36.837Z,8.23
2022-08-23T21:10:02.188Z,8.45
2022-08-23T21:12:26.001Z,12.40
2022-08-23T21:14:50.595Z,9.05
2022-08-23T21:17:14.412Z,8.68
2022-08-23T21:19:38.257Z,9.43
2022-08-23T21:22:02.019Z,8.70
2022-08-23T21:24:26.307Z,8.77
2022-08-23T21:26:52.032Z,8.02
2022-08-23T21:29:15.958Z,9.48
2022-08-23T21:31:40.614Z,10.30
2022-08-23T21:34:04.570Z,9.75
2022-08-23T21:36:29.146Z,6.40
2022-08-23T21:38:52.870Z,7.80
2022-08-23T21:41:34.980Z,9.15
2022-08-23T21:44:00.131Z,7.40
2022-08-23T21:46:24.517Z,7.18
2022-08-23T21:48:48.259Z,7.30
2022-08-23T21:51:11.862Z,9.93
2022-08-23T21:53:35.559Z,6.78
2022-08-23T21:55:59.126Z,8.15
2022-08-23T21:58:22.919Z,7.97
2022-08-23T22:00:47.978Z,7.80
2022-08-23T22:03:12.034Z,9.30
2022-08-23T22:05:40.875Z,6.75
2022-08-23T22:08:05.103Z,6.78
2022-08-23T22:10:28.791Z,10.05
2022-08-23T22:12:52.827Z,12.43
2022-08-23T22:15:17.556Z,8.13
2022-08-23T22:17:42.644Z,8.45
2022-08-23T22:20:08.699Z,7.47
2022-08-23T22:22:33.282Z,12.55
2022-08-23T22:24:57.740Z,15.52
2022-08-23T22:27:22.339Z,7.72
2022-08-23T22:29:46.780Z,8.55
2022-08-23T22:32:10.529Z,8.32
2022-08-23T22:34:35.783Z,6.18
2022-08-23T22:36:59.691Z,6.07
2022-08-23T22:39:25.282Z,8.50
2022-08-23T22:41:48.986Z,9.95
2022-08-23T22:44:12.644Z,9.27
2022-08-23T22:46:37.044Z,10.82
2022-08-23T22:49:01.165Z,9.02
2022-08-23T22:51:28.851Z,8.23
2022-08-23T22:53:56.028Z,10.63
2022-08-23T22:56:22.933Z,6.03
2022-08-23T22:58:47.774Z,5.80
2022-08-23T23:01:20.931Z,10.82
2022-08-23T23:03:44.906Z,8.68
2022-08-23T23:06:08.655Z,7.20
2022-08-23T23:08:33.703Z,11.00
2022-08-23T23:11:00.171Z,10.65
2022-08-23T23:13:25.455Z,9.85
2022-08-23T23:15:50.184Z,10.70
2022-08-23T23:18:13.948Z,8.20
2022-08-23T23:20:40.281Z,8.55
2022-08-23T23:23:03.979Z,6.55
2022-08-23T23:25:29.063Z,7.28
2022-08-23T23:27:55.409Z,7.07
2022-08-23T23:30:22.872Z,7.85
2022-08-23T23:32:46.619Z,9.10
2022-08-23T23:35:11.453Z,6.43
2022-08-23T23:37:35.219Z,6.78
2022-08-23T23:39:59.230Z,8.02
2022-08-23T23:42:24.299Z,9.85
2022-08-23T23:44:48.047Z,9.80
2022-08-23T23:47:11.815Z,7.97
2022-08-23T23:49:35.551Z,9.95
2022-08-23T23:51:59.138Z,15.32
2022-08-23T23:54:22.899Z,8.65
2022-08-23T23:56:48.224Z,7.85
2022-08-23T23:59:13.414Z,8.63
